METAR AND TAF INFORMATION
METAR FOR ENDU
ADDS - METARS form results

(0844 UTC 16 December 2019)
Data provider http://aviationweather.gov/metar/data/
 
METAR text: ENDU 160820Z VRB01KT 9999 FEW060 M12/M13 Q0994 NOSIG RMK WIND 1100FT 09006KT WIND 2200FT 15014KT
Conditions at: ENDU (BARDUFOSS (CIV/M, NO) observed 0820 UTC 16 December 2019
Temperature: -12.0°C (10°F)
Dewpoint: -13.0°C ( 9°F) [RH = 92%]
Pressure (altimeter): 29.35 inches Hg (994.0 mb)
Winds: variable direction winds at 1 MPH (1 knots; 0.5 m/s)
Visibility: 6 or more miles (10+ km)
Ceiling: at least 12,000 feet AGL
Clouds: few clouds at 6000 feet AGL
Weather: no significant weather observed at this time

METAR text: ENDU 160750Z 24003KT 9999 FEW060 M13/M15 Q0994 NOSIG RMK WIND 1100FT 10006KT WIND 2200FT 15014KT
Conditions at: ENDU (BARDUFOSS (CIV/M, NO) observed 0750 UTC 16 December 2019
Temperature: -13.0°C ( 9°F)
Dewpoint: -15.0°C ( 5°F) [RH = 85%]
Pressure (altimeter): 29.35 inches Hg (994.0 mb)
Winds: from the WSW (240 degrees) at 3 MPH (3 knots; 1.5 m/s)
Visibility: 6 or more miles (10+ km)
Ceiling: at least 12,000 feet AGL
Clouds: few clouds at 6000 feet AGL
Weather: no significant weather observed at this time

Forecast for: ENDU (BARDUFOSS (CIV/M, NO)
Text: TAF ENDU 1606/1706 12005KT 9999 FEW030 SCT060
Forecast period: 0600 UTC 16 December 2019 to 0600 UTC 17 December 2019
Forecast type: FROM: standard forecast or significant change
Winds: from the ESE (120 degrees) at 6 MPH (5 knots; 2.6 m/s)
Visibility: 6 or more miles 10+ km)
Ceiling: at least 12,000 feet AGL
Clouds: few clouds at 3000 feet AGL
scattered clouds at 6000 feet AGL
Weather: no significant weather forecast for this period
Text: TEMPO 1614/1624 4000 -SN VV014
Forecast period: 1400 UTC 16 December 2019 to 0000 UTC 17 December 2019
Forecast type: TEMPORARY: The following changes expected for less than half the time period
Visibility: 2.49 miles (4.01 km)
Ceiling: indefinite ceiling with vertical visibility of 1400 feet AGL
Clouds: obscured sky
Weather: -SN  (light snow)

 AIRPORT MAP

 RUNWAY INFORMATION
Runway 10 Runway length 8015 ft Runway width 148 ft
Runway elevation 252 ft Runway displaced threshold 1880 ft Runway heading 109
Runway 28 Runway length 8015 ft Runway width 148 ft
Runway elevation 219 ft Runway displaced threshold 0 ft Runway heading 289

 AIRPORT FREQUENCIES
Type APP Name APP Frequency 118.8 MHZ
Type ATIS Name ATIS Frequency 129.725 MHZ
Type TWR Name TWR Frequency 118.1 MHZ

 AIRPORT NEAR NAVIGATION AIDS
Type TACAN Name Bardufoss Frequency 113400 KHZ
Type VOR-DME Name Bardufoss Frequency 114200 KHZ
Type NDB Name Sorreisa Frequency 338 KHZ
Type NDB Name Senja Frequency 414 KHZ
Type NDB Name Fossmo Frequency 371 KHZ
Type NDB Name Tiller Frequency 350 KHZ